createdAt,value
2022-10-29T00:02:21.483Z,79.60
2022-10-29T00:04:48.836Z,80.62
2022-10-29T00:07:16.028Z,80.35
2022-10-29T00:09:43.262Z,79.62
2022-10-29T00:12:10.491Z,80.26
2022-10-29T00:14:37.841Z,80.06
2022-10-29T00:17:05.071Z,79.83
2022-10-29T00:19:32.306Z,79.73
2022-10-29T00:21:59.553Z,79.80
2022-10-29T00:24:26.809Z,79.02
2022-10-29T00:26:54.163Z,79.82
2022-10-29T00:29:21.349Z,79.79
2022-10-29T00:31:50.472Z,79.12
2022-10-29T00:34:17.717Z,79.66
2022-10-29T00:36:45.009Z,79.55
2022-10-29T00:39:16.177Z,78.76
2022-10-29T00:41:43.707Z,79.00
2022-10-29T00:44:23.042Z,78.85
2022-10-29T00:46:56.752Z,78.29
2022-10-29T00:49:25.318Z,78.97
2022-10-29T00:51:52.711Z,78.81
2022-10-29T00:54:19.930Z,78.92
2022-10-29T00:57:00.586Z,78.30
2022-10-29T00:59:27.943Z,80.00
2022-10-29T01:01:56.143Z,79.24
2022-10-29T01:04:24.786Z,79.68
2022-10-29T01:06:52.761Z,78.81
2022-10-29T01:09:19.958Z,78.53
2022-10-29T01:11:59.845Z,79.30
2022-10-29T01:14:33.047Z,79.33
2022-10-29T01:17:12.092Z,78.41
2022-10-29T01:20:12.657Z,79.38
2022-10-29T01:22:44.920Z,79.60
2022-10-29T01:25:32.112Z,78.55
2022-10-29T01:28:07.578Z,79.64
2022-10-29T01:30:58.184Z,79.08
2022-10-29T01:33:37.302Z,79.33
2022-10-29T01:36:10.623Z,80.14
2022-10-29T01:38:48.006Z,80.64
2022-10-29T01:41:20.919Z,78.80
2022-10-29T01:44:02.010Z,79.72
2022-10-29T01:46:39.829Z,79.60
2022-10-29T01:49:12.441Z,79.75
2022-10-29T01:51:40.195Z,79.99
2022-10-29T01:54:09.565Z,79.90
2022-10-29T01:56:37.147Z,79.94
2022-10-29T01:59:11.351Z,79.62
2022-10-29T02:01:55.380Z,79.83
2022-10-29T02:04:53.533Z,81.45
2022-10-29T02:07:35.159Z,80.30
2022-10-29T02:10:24.895Z,81.40
2022-10-29T02:12:54.108Z,81.31
2022-10-29T02:15:29.803Z,80.94
2022-10-29T02:18:01.737Z,81.56
2022-10-29T02:20:29.486Z,80.93
2022-10-29T02:22:57.296Z,79.94
2022-10-29T02:25:24.884Z,78.03
2022-10-29T02:27:52.329Z,78.69
2022-10-29T02:30:19.691Z,77.90
2022-10-29T02:32:46.912Z,79.11
2022-10-29T02:35:14.188Z,78.95
2022-10-29T02:37:41.447Z,78.61
2022-10-29T02:40:09.471Z,78.56
2022-10-29T02:42:36.785Z,79.08
2022-10-29T02:45:04.417Z,79.62
2022-10-29T02:47:31.655Z,79.81
2022-10-29T02:49:58.899Z,79.67
2022-10-29T02:52:26.161Z,79.07
2022-10-29T02:54:53.940Z,78.59
2022-10-29T02:57:21.255Z,78.39
2022-10-29T02:59:48.496Z,78.75
2022-10-29T03:02:15.762Z,78.20
2022-10-29T03:04:44.319Z,77.68
2022-10-29T03:07:11.528Z,78.49
2022-10-29T03:09:38.744Z,77.84
2022-10-29T03:12:06.536Z,77.62
2022-10-29T03:14:33.735Z,76.51
2022-10-29T03:17:01.011Z,77.85
2022-10-29T03:19:28.271Z,78.32
2022-10-29T03:21:55.486Z,77.99
2022-10-29T03:24:22.863Z,77.54
2022-10-29T03:26:50.033Z,76.74
2022-10-29T03:29:17.205Z,76.96
2022-10-29T03:31:44.569Z,77.30
2022-10-29T03:34:11.776Z,77.63
2022-10-29T03:36:38.995Z,76.78
2022-10-29T03:39:06.403Z,77.68
2022-10-29T03:41:33.554Z,78.64
2022-10-29T03:44:00.747Z,79.12
2022-10-29T03:46:27.985Z,76.99
2022-10-29T03:48:55.221Z,77.22
2022-10-29T03:51:22.439Z,77.46
2022-10-29T03:53:49.678Z,78.36
2022-10-29T03:56:16.984Z,78.16
2022-10-29T03:58:44.281Z,77.08
2022-10-29T04:01:11.722Z,78.63
2022-10-29T04:03:41.357Z,78.83
2022-10-29T04:06:14.795Z,78.11
2022-10-29T04:08:42.549Z,77.55
2022-10-29T04:11:13.452Z,77.31
2022-10-29T04:13:40.957Z,77.61
2022-10-29T04:16:08.239Z,77.71
2022-10-29T04:18:35.543Z,77.02
2022-10-29T04:23:08.096Z,77.74
2022-10-29T04:29:24.840Z,76.80
2022-10-29T04:31:52.424Z,76.56
2022-10-29T04:34:19.656Z,77.55
2022-10-29T04:36:46.909Z,77.33
2022-10-29T04:39:15.441Z,76.57
2022-10-29T04:41:44.283Z,76.17
2022-10-29T04:44:11.386Z,77.57
2022-10-29T04:46:38.606Z,76.90
2022-10-29T04:49:05.836Z,76.58
2022-10-29T04:51:33.156Z,77.29
2022-10-29T04:54:00.498Z,77.12
2022-10-29T04:56:30.019Z,77.00
2022-10-29T04:58:57.271Z,76.37
2022-10-29T05:01:24.639Z,76.01
2022-10-29T05:03:55.558Z,75.62
2022-10-29T05:06:26.192Z,75.35
2022-10-29T05:08:53.369Z,76.01
2022-10-29T05:11:20.562Z,76.08
2022-10-29T05:13:47.763Z,75.88
2022-10-29T05:16:14.960Z,75.51
2022-10-29T05:18:42.174Z,75.44
2022-10-29T05:21:09.419Z,75.38
2022-10-29T05:23:36.644Z,75.72
2022-10-29T05:26:04.075Z,76.47
2022-10-29T05:28:31.329Z,76.71
2022-10-29T05:31:00.785Z,75.90
2022-10-29T05:33:28.191Z,76.33
2022-10-29T05:35:55.879Z,76.41
2022-10-29T05:38:23.083Z,76.01
2022-10-29T05:40:50.269Z,76.15
2022-10-29T05:43:17.706Z,75.74
2022-10-29T05:45:45.382Z,76.99
2022-10-29T05:50:44.846Z,75.54
2022-10-29T05:53:13.563Z,77.59
2022-10-29T05:55:41.620Z,76.76
2022-10-29T05:58:13.529Z,76.78
2022-10-29T06:00:44.990Z,77.49
2022-10-29T06:03:20.762Z,76.60
2022-10-29T06:05:48.989Z,76.16
2022-10-29T06:08:16.976Z,76.58
2022-10-29T06:10:44.458Z,75.62
2022-10-29T06:13:12.213Z,75.80
2022-10-29T06:15:39.531Z,75.67
2022-10-29T06:18:06.966Z,75.31
2022-10-29T06:20:34.270Z,75.40
2022-10-29T06:23:01.484Z,75.28
2022-10-29T06:25:28.824Z,74.97
2022-10-29T06:28:03.275Z,75.46
2022-10-29T06:30:31.688Z,75.98
2022-10-29T06:32:59.806Z,74.94
2022-10-29T06:35:27.615Z,74.61
2022-10-29T06:37:55.639Z,74.54
2022-10-29T06:40:23.615Z,74.90
2022-10-29T06:42:58.558Z,74.91
2022-10-29T06:45:28.673Z,77.00
2022-10-29T06:47:56.619Z,74.44
2022-10-29T06:50:24.543Z,73.94
2022-10-29T06:52:59.753Z,72.22
2022-10-29T06:55:27.924Z,71.87
2022-10-29T06:58:12.745Z,72.65
2022-10-29T07:00:42.282Z,72.25
2022-10-29T07:03:16.631Z,73.08
2022-10-29T07:05:43.961Z,77.15
2022-10-29T07:08:11.558Z,78.09
2022-10-29T07:10:39.031Z,78.06
2022-10-29T07:13:06.238Z,77.71
2022-10-29T07:15:33.498Z,74.52
2022-10-29T07:18:03.152Z,78.21
2022-10-29T07:20:33.104Z,74.72
2022-10-29T07:23:01.406Z,77.19
2022-10-29T07:25:29.675Z,75.35
2022-10-29T07:28:03.658Z,76.94
2022-10-29T07:30:31.303Z,75.32
2022-10-29T07:32:58.472Z,75.31
2022-10-29T07:35:25.757Z,75.18
2022-10-29T07:37:53.344Z,75.66
2022-10-29T07:40:20.962Z,74.61
2022-10-29T07:42:52.190Z,73.31
2022-10-29T07:45:19.444Z,73.06
2022-10-29T07:47:46.748Z,75.41
2022-10-29T07:50:14.388Z,73.83
2022-10-29T07:52:41.821Z,73.88
2022-10-29T07:55:09.358Z,72.45
2022-10-29T07:57:36.687Z,72.93
2022-10-29T08:00:04.212Z,71.78
2022-10-29T08:02:39.540Z,72.71
2022-10-29T08:05:07.161Z,72.24
2022-10-29T08:07:34.425Z,71.44
2022-10-29T08:10:01.808Z,70.59
2022-10-29T08:12:29.046Z,70.94
2022-10-29T08:14:56.283Z,69.86
2022-10-29T08:17:23.530Z,70.09
2022-10-29T08:19:50.792Z,70.34
2022-10-29T08:22:18.012Z,70.31
2022-10-29T08:24:45.318Z,69.56
2022-10-29T08:27:12.662Z,68.90
2022-10-29T08:29:40.016Z,69.01
2022-10-29T08:32:07.303Z,67.71
2022-10-29T08:34:34.559Z,67.88
2022-10-29T08:37:02.141Z,67.14
2022-10-29T08:39:29.393Z,67.30
2022-10-29T08:42:29.525Z,66.25
2022-10-29T08:45:25.934Z,67.08
2022-10-29T08:48:22.423Z,67.79
2022-10-29T08:51:01.747Z,66.92
2022-10-29T08:53:39.251Z,66.18
2022-10-29T08:56:14.504Z,65.93
2022-10-29T08:59:04.013Z,65.68
2022-10-29T09:01:31.670Z,65.77
2022-10-29T09:03:58.946Z,66.11
2022-10-29T09:06:45.679Z,66.16
2022-10-29T09:09:33.384Z,65.69
2022-10-29T09:12:20.502Z,65.42
2022-10-29T09:15:05.971Z,66.00
2022-10-29T09:17:39.364Z,64.88
2022-10-29T09:20:43.890Z,65.42
2022-10-29T09:23:26.045Z,65.64
2022-10-29T09:26:03.224Z,65.25
2022-10-29T09:28:36.796Z,66.31
2022-10-29T09:31:22.212Z,66.21
2022-10-29T09:33:51.217Z,65.68
2022-10-29T09:36:20.496Z,66.16
2022-10-29T09:38:56.544Z,66.31
2022-10-29T09:41:27.111Z,66.36
2022-10-29T09:44:04.733Z,66.03
2022-10-29T09:46:35.178Z,65.59
2022-10-29T09:49:04.190Z,66.01
2022-10-29T09:51:36.464Z,65.71
2022-10-29T09:54:04.311Z,65.52
2022-10-29T09:56:31.692Z,63.97
2022-10-29T09:59:11.808Z,64.56
2022-10-29T10:01:39.731Z,63.87
2022-10-29T10:04:15.759Z,64.13
2022-10-29T10:07:06.044Z,63.54
2022-10-29T10:09:52.867Z,63.39
2022-10-29T10:12:22.820Z,63.21
2022-10-29T10:15:03.092Z,62.08
2022-10-29T10:17:57.726Z,61.44
2022-10-29T10:20:41.157Z,60.64
2022-10-29T10:23:45.311Z,61.35
2022-10-29T10:26:32.637Z,62.39
2022-10-29T10:29:21.253Z,60.64
2022-10-29T10:31:50.605Z,61.33
2022-10-29T10:34:22.108Z,62.41
2022-10-29T10:36:52.362Z,61.17
2022-10-29T10:39:23.901Z,60.93
2022-10-29T10:41:51.688Z,59.87
2022-10-29T10:44:19.951Z,59.80
2022-10-29T10:46:47.962Z,60.63
2022-10-29T10:49:17.710Z,60.06
2022-10-29T10:51:55.117Z,60.07
2022-10-29T10:54:33.921Z,59.29
2022-10-29T10:57:05.981Z,59.33
2022-10-29T11:00:00.400Z,58.45
2022-10-29T11:02:30.658Z,58.44
2022-10-29T11:05:12.519Z,58.45
2022-10-29T11:07:42.452Z,58.54
2022-10-29T11:10:12.533Z,57.35
2022-10-29T11:12:39.592Z,57.76
2022-10-29T11:15:22.053Z,58.43
2022-10-29T11:17:55.047Z,57.25
2022-10-29T11:20:26.241Z,57.20
2022-10-29T11:23:08.723Z,57.89
2022-10-29T11:25:42.693Z,57.38
2022-10-29T11:28:21.764Z,57.01
2022-10-29T11:31:03.075Z,56.93
2022-10-29T11:33:42.057Z,57.31
2022-10-29T11:36:15.069Z,57.16
2022-10-29T11:38:52.439Z,56.28
2022-10-29T11:41:25.221Z,56.16
2022-10-29T11:43:53.083Z,56.28
2022-10-29T11:46:59.770Z,55.89
2022-10-29T11:49:39.297Z,55.26
2022-10-29T11:52:12.676Z,55.16
2022-10-29T11:54:52.085Z,54.76
2022-10-29T11:57:34.642Z,53.86
2022-10-29T12:00:16.828Z,53.28
2022-10-29T12:03:04.221Z,53.81
2022-10-29T12:05:56.262Z,52.22
2022-10-29T12:08:32.376Z,52.31
2022-10-29T12:10:59.525Z,52.34
2022-10-29T12:13:42.429Z,51.61
2022-10-29T12:16:28.765Z,51.93
2022-10-29T12:19:05.508Z,52.43
2022-10-29T12:21:48.907Z,51.46
2022-10-29T12:24:31.895Z,51.10
2022-10-29T12:27:01.969Z,51.04
2022-10-29T12:29:44.205Z,50.71
2022-10-29T12:32:19.533Z,50.97
2022-10-29T12:34:52.878Z,51.82
2022-10-29T12:37:42.086Z,50.42
2022-10-29T12:40:20.033Z,50.11
2022-10-29T12:42:48.487Z,49.37
2022-10-29T12:45:27.495Z,48.82
2022-10-29T12:48:05.830Z,48.35
2022-10-29T12:50:48.860Z,48.06
2022-10-29T12:53:35.455Z,46.81
2022-10-29T12:56:03.838Z,46.06
2022-10-29T12:58:53.100Z,45.50
2022-10-29T13:01:50.133Z,44.96
2022-10-29T13:04:24.763Z,44.87
2022-10-29T13:07:08.566Z,45.85
2022-10-29T13:09:37.192Z,44.78
2022-10-29T13:12:09.830Z,44.80
2022-10-29T13:14:42.661Z,44.80
2022-10-29T13:17:28.969Z,45.04
2022-10-29T13:20:01.152Z,44.41
2022-10-29T13:22:33.303Z,46.92
2022-10-29T13:25:37.949Z,44.33
2022-10-29T13:28:08.149Z,45.00
2022-10-29T13:30:37.032Z,45.04
2022-10-29T13:33:26.155Z,45.10
2022-10-29T13:35:54.581Z,44.58
2022-10-29T13:38:51.786Z,46.06
2022-10-29T13:41:40.203Z,45.73
2022-10-29T13:44:07.431Z,45.31
2022-10-29T13:46:44.940Z,45.48
2022-10-29T13:49:27.772Z,46.34
2022-10-29T13:52:01.208Z,46.03
2022-10-29T13:54:35.736Z,46.02
2022-10-29T13:57:12.320Z,45.97
2022-10-29T14:00:06.749Z,47.68
2022-10-29T14:02:39.269Z,49.56
2022-10-29T14:05:17.345Z,47.22
2022-10-29T14:08:07.563Z,47.66
2022-10-29T14:10:58.091Z,46.71
2022-10-29T14:13:42.801Z,47.64
2022-10-29T14:16:11.998Z,47.14
2022-10-29T14:18:41.266Z,47.01
2022-10-29T14:21:26.137Z,47.62
2022-10-29T14:23:58.813Z,48.35
2022-10-29T14:26:31.050Z,47.59
2022-10-29T14:29:18.837Z,47.32
2022-10-29T14:31:47.657Z,47.75
2022-10-29T14:34:28.592Z,47.90
2022-10-29T14:37:02.347Z,48.19
2022-10-29T14:39:55.219Z,47.93
2022-10-29T14:42:40.521Z,48.00
2022-10-29T14:45:17.493Z,47.90
2022-10-29T14:47:52.256Z,47.03
2022-10-29T14:50:24.456Z,47.87
2022-10-29T14:52:59.468Z,47.76
2022-10-29T14:55:31.351Z,48.27
2022-10-29T14:58:05.174Z,47.34
2022-10-29T15:00:35.821Z,47.87
2022-10-29T15:03:04.254Z,48.10
2022-10-29T15:05:36.725Z,48.19
2022-10-29T15:08:11.234Z,48.91
2022-10-29T15:11:27.827Z,48.11
2022-10-29T15:13:55.194Z,48.37
2022-10-29T15:16:22.575Z,49.34
2022-10-29T15:18:52.231Z,49.89
2022-10-29T15:21:25.338Z,49.19
2022-10-29T15:24:21.122Z,49.99
2022-10-29T15:26:51.907Z,49.88
2022-10-29T15:29:33.400Z,50.65
2022-10-29T15:32:02.171Z,50.13
2022-10-29T15:34:34.483Z,50.77
2022-10-29T15:37:22.142Z,51.89
2022-10-29T15:39:55.741Z,51.06
2022-10-29T15:42:25.631Z,50.66
2022-10-29T15:45:08.394Z,51.46
2022-10-29T15:47:37.596Z,51.30
2022-10-29T15:50:07.685Z,51.49
2022-10-29T15:52:39.593Z,53.11
2022-10-29T15:55:23.427Z,52.17
2022-10-29T15:57:55.276Z,53.34
2022-10-29T16:00:24.126Z,52.20
2022-10-29T16:02:51.512Z,52.38
2022-10-29T16:05:18.841Z,52.93
2022-10-29T16:07:47.529Z,54.32
2022-10-29T16:10:17.330Z,53.90
2022-10-29T16:12:45.632Z,54.69
2022-10-29T16:15:18.023Z,54.40
2022-10-29T16:17:46.288Z,54.62
2022-10-29T16:20:15.525Z,55.28
2022-10-29T16:22:43.022Z,55.96
2022-10-29T16:25:21.639Z,55.44
2022-10-29T16:27:49.074Z,56.34
2022-10-29T16:30:16.590Z,55.87
2022-10-29T16:32:44.309Z,56.04
2022-10-29T16:35:18.650Z,53.93
2022-10-29T16:37:45.986Z,54.54
2022-10-29T16:40:13.836Z,54.81
2022-10-29T16:42:41.353Z,55.38
2022-10-29T16:45:13.915Z,55.40
2022-10-29T16:47:41.179Z,55.90
2022-10-29T16:50:19.768Z,56.38
2022-10-29T16:52:47.399Z,56.40
2022-10-29T16:55:14.894Z,56.58
2022-10-29T16:57:42.274Z,56.31
2022-10-29T17:00:09.980Z,56.75
2022-10-29T17:02:38.211Z,56.83
2022-10-29T17:05:06.937Z,56.85
2022-10-29T17:07:34.140Z,57.34
2022-10-29T17:10:01.409Z,57.59
2022-10-29T17:12:28.688Z,58.18
2022-10-29T17:14:55.883Z,57.49
2022-10-29T17:17:23.194Z,57.96
2022-10-29T17:19:50.486Z,58.26
2022-10-29T17:22:17.776Z,57.96
2022-10-29T17:24:45.442Z,58.11
2022-10-29T17:27:12.879Z,58.72
2022-10-29T17:29:40.162Z,59.23
2022-10-29T17:32:07.847Z,59.24
2022-10-29T17:34:35.406Z,59.39
2022-10-29T17:37:02.820Z,59.21
2022-10-29T17:39:30.191Z,59.02
2022-10-29T17:41:57.578Z,58.70
2022-10-29T17:44:26.477Z,58.86
2022-10-29T17:46:54.865Z,59.09
2022-10-29T17:49:22.690Z,59.00
2022-10-29T17:51:49.950Z,59.22
2022-10-29T17:54:17.385Z,58.69
2022-10-29T17:56:44.647Z,59.95
2022-10-29T17:59:12.395Z,59.08
2022-10-29T18:01:39.862Z,59.39
2022-10-29T18:04:07.327Z,59.85
2022-10-29T18:06:34.598Z,59.77
2022-10-29T18:09:02.226Z,60.26
2022-10-29T18:11:29.709Z,60.02
2022-10-29T18:13:57.537Z,59.96
2022-10-29T18:16:26.996Z,60.30
2022-10-29T18:19:01.921Z,59.90
2022-10-29T18:21:30.943Z,60.49
2022-10-29T18:23:58.366Z,61.01
2022-10-29T18:26:30.859Z,59.70
2022-10-29T18:28:59.871Z,60.78
2022-10-29T18:31:30.134Z,60.82
2022-10-29T18:33:58.410Z,60.38
2022-10-29T18:36:25.772Z,60.39
2022-10-29T18:38:54.874Z,60.25
2022-10-29T18:41:22.671Z,61.09
2022-10-29T18:43:50.864Z,60.79
2022-10-29T18:46:18.835Z,61.11
2022-10-29T18:48:47.333Z,61.85
2022-10-29T18:51:21.668Z,61.16
2022-10-29T18:53:48.952Z,60.20
2022-10-29T18:56:18.212Z,60.67
2022-10-29T18:58:45.668Z,60.65
2022-10-29T19:01:15.639Z,60.97
2022-10-29T19:03:43.666Z,61.04
2022-10-29T19:06:13.070Z,61.21
2022-10-29T19:08:42.384Z,60.87
2022-10-29T19:11:12.002Z,61.56
2022-10-29T19:13:39.358Z,61.11
2022-10-29T19:16:09.098Z,61.51
2022-10-29T19:18:37.384Z,61.19
2022-10-29T19:21:09.624Z,61.54
2022-10-29T19:23:37.052Z,61.54
2022-10-29T19:26:15.390Z,60.88
2022-10-29T19:28:44.411Z,61.18
2022-10-29T19:31:15.224Z,61.03
2022-10-29T19:33:42.900Z,60.53
2022-10-29T19:36:10.311Z,60.94
2022-10-29T19:38:38.529Z,60.57
2022-10-29T19:41:05.858Z,60.66
2022-10-29T19:43:33.368Z,60.37
2022-10-29T19:46:01.187Z,60.61
2022-10-29T19:48:28.474Z,57.69
2022-10-29T19:50:56.640Z,60.19
2022-10-29T19:53:25.185Z,61.07
2022-10-29T19:55:53.771Z,60.95
2022-10-29T19:58:22.852Z,60.78
2022-10-29T20:00:50.189Z,61.36
2022-10-29T20:03:18.127Z,60.85
2022-10-29T20:05:46.133Z,61.66
2022-10-29T20:08:15.978Z,62.68
2022-10-29T20:10:46.237Z,64.13
2022-10-29T20:13:13.508Z,69.00
2022-10-29T20:15:40.790Z,72.43
2022-10-29T20:18:08.462Z,72.44
2022-10-29T20:20:35.653Z,74.43
2022-10-29T20:23:03.023Z,73.17
2022-10-29T20:25:30.406Z,73.14
2022-10-29T20:27:59.432Z,75.03
2022-10-29T20:30:27.518Z,76.32
2022-10-29T20:32:54.963Z,76.15
2022-10-29T20:35:22.381Z,76.44
2022-10-29T20:37:49.640Z,79.09
2022-10-29T20:40:17.011Z,78.75
2022-10-29T20:42:44.313Z,76.21
2022-10-29T20:45:11.761Z,74.91
2022-10-29T20:47:38.925Z,72.37
2022-10-29T20:50:06.534Z,73.28
2022-10-29T20:52:33.801Z,74.01
2022-10-29T20:55:01.103Z,72.83
2022-10-29T20:57:28.330Z,71.39
2022-10-29T20:59:55.543Z,72.32
2022-10-29T21:02:22.868Z,72.15
2022-10-29T21:04:50.467Z,72.54
2022-10-29T21:07:18.783Z,71.24
2022-10-29T21:09:47.389Z,71.30
2022-10-29T21:12:14.661Z,70.77
2022-10-29T21:14:41.981Z,70.86
2022-10-29T21:17:09.152Z,69.88
2022-10-29T21:19:36.584Z,69.75
2022-10-29T21:22:03.915Z,68.38
2022-10-29T21:24:31.236Z,71.03
2022-10-29T21:26:58.427Z,68.13
2022-10-29T21:29:25.662Z,67.39
2022-10-29T21:31:52.818Z,68.18
2022-10-29T21:34:19.986Z,68.50
2022-10-29T21:36:47.272Z,68.18
2022-10-29T21:39:14.450Z,69.19
2022-10-29T21:41:41.660Z,68.11
2022-10-29T21:44:09.041Z,70.65
2022-10-29T21:46:36.323Z,70.32
2022-10-29T21:49:03.605Z,64.38
2022-10-29T21:51:30.999Z,67.50
2022-10-29T21:53:58.455Z,70.02
2022-10-29T21:56:25.761Z,69.13
2022-10-29T21:58:53.000Z,70.45
2022-10-29T22:01:20.314Z,70.20
2022-10-29T22:03:47.825Z,67.62
2022-10-29T22:06:20.245Z,69.78
2022-10-29T22:08:51.808Z,68.77
2022-10-29T22:11:19.053Z,68.57
2022-10-29T22:13:46.696Z,66.46
2022-10-29T22:16:14.549Z,68.41
2022-10-29T22:18:41.796Z,68.97
2022-10-29T22:21:15.026Z,67.68
2022-10-29T22:23:47.369Z,68.18
2022-10-29T22:26:15.773Z,67.48
2022-10-29T22:28:43.157Z,66.80
2022-10-29T22:31:10.997Z,67.38
2022-10-29T22:33:39.068Z,68.47
2022-10-29T22:36:14.718Z,66.98
2022-10-29T22:38:41.948Z,67.43
2022-10-29T22:41:11.986Z,66.79
2022-10-29T22:43:39.295Z,66.34
2022-10-29T22:46:07.931Z,67.24
2022-10-29T22:48:35.438Z,67.26
2022-10-29T22:51:03.630Z,67.08
2022-10-29T22:53:31.640Z,67.67
2022-10-29T22:55:59.462Z,66.55
2022-10-29T22:58:26.751Z,67.71
2022-10-29T23:01:30.513Z,67.31
2022-10-29T23:03:58.825Z,68.23
2022-10-29T23:06:26.929Z,68.20
2022-10-29T23:08:56.063Z,68.45
2022-10-29T23:11:25.624Z,68.70
2022-10-29T23:13:54.045Z,68.82
2022-10-29T23:16:22.100Z,69.06
2022-10-29T23:18:50.691Z,68.99
2022-10-29T23:21:18.463Z,69.90
2022-10-29T23:23:46.419Z,69.16
2022-10-29T23:26:15.126Z,69.40
2022-10-29T23:28:42.514Z,69.15
2022-10-29T23:31:14.890Z,69.19
2022-10-29T23:33:46.652Z,69.50
2022-10-29T23:36:15.131Z,69.40
2022-10-29T23:38:42.344Z,69.58
2022-10-29T23:41:09.693Z,69.61
2022-10-29T23:43:37.191Z,69.28
2022-10-29T23:46:05.393Z,68.91
2022-10-29T23:48:32.708Z,68.94
2022-10-29T23:50:59.946Z,69.42
2022-10-29T23:53:27.245Z,69.34
2022-10-29T23:55:54.527Z,69.53
2022-10-29T23:58:21.739Z,69.46
